Time;durP1;ratioP1;P1;durP2;ratioP2;P2;SDS_P1;SDS_P2;PMS_P1;PMS_P2;Temp;Humidity;BMP_temperature;BMP_pressure;BME280_temperature;BME280_humidity;BME280_pressure;Samples;Min_cycle;Max_cycle;Signal;HPM_P1;HPM_P2
2022/09/27 00:01:52;;;;;;;1999.90;999.90;;;10.60;99.90;;;;;;6651314;89;20310;-79
2022/09/27 00:11:53;;;;;;;1999.90;999.90;;;10.50;99.90;;;;;;6654815;88;20193;-79
2022/09/27 00:21:53;;;;;;;1999.90;999.90;;;10.50;99.90;;;;;;6650278;89;20184;-79
2022/09/27 00:31:54;;;;;;;1999.90;999.90;;;10.30;99.90;;;;;;6659241;89;20275;-79
2022/09/27 00:41:55;;;;;;;1999.90;999.90;;;10.20;99.90;;;;;;6653294;89;20204;-79
2022/09/27 00:52:10;;;;;;;1999.90;999.90;;;10.00;99.90;;;;;;6653978;89;20230;-78
2022/09/27 01:02:11;;;;;;;1999.90;999.90;;;9.90;99.90;;;;;;6651170;88;20220;-79
2022/09/27 01:12:49;;;;;;;1999.90;999.90;;;9.90;99.90;;;;;;6654769;89;20183;-79
2022/09/27 01:23:18;;;;;;;1999.90;999.90;;;10.00;99.90;;;;;;6644415;89;20268;-79
2022/09/27 01:33:50;;;;;;;1999.90;999.90;;;9.90;99.90;;;;;;6636276;89;20280;-78
2022/09/27 01:44:31;;;;;;;1999.90;999.90;;;9.80;99.90;;;;;;6632424;89;20214;-78
2022/09/27 01:54:46;;;;;;;1999.90;999.90;;;9.80;99.90;;;;;;6640415;89;20250;-78
2022/09/27 02:04:48;;;;;;;1999.90;999.90;;;9.60;99.90;;;;;;6646005;89;20214;-78
2022/09/27 02:14:54;;;;;;;1999.90;999.90;;;9.70;99.90;;;;;;6678660;89;20263;-79
2022/09/27 02:25:09;;;;;;;1999.90;999.90;;;9.70;99.90;;;;;;6641023;89;20209;-80
2022/09/27 02:35:17;;;;;;;1999.90;999.90;;;9.60;99.90;;;;;;6630398;89;20200;-79
2022/09/27 02:45:18;;;;;;;1999.90;999.90;;;9.60;99.90;;;;;;6631792;89;20214;-78
2022/09/27 02:55:34;;;;;;;1999.90;999.90;;;9.60;99.90;;;;;;6651687;89;20322;-79
2022/09/27 03:05:43;;;;;;;1999.90;999.90;;;9.70;99.90;;;;;;6652003;89;20371;-79
2022/09/27 03:15:43;;;;;;;1999.90;999.90;;;9.60;99.90;;;;;;6650699;88;20267;-79
2022/09/27 03:25:44;;;;;;;1999.90;999.90;;;9.50;99.90;;;;;;6652429;89;20288;-79
2022/09/27 03:35:44;;;;;;;1999.90;999.90;;;9.50;99.90;;;;;;6655664;89;20619;-79
2022/09/27 03:45:46;;;;;;;1999.90;999.90;;;9.40;99.90;;;;;;6636729;88;20221;-78
2022/09/27 03:55:46;;;;;;;1999.90;999.90;;;9.40;99.90;;;;;;6659785;88;20185;-76
2022/09/27 04:05:47;;;;;;;1999.90;999.90;;;9.30;99.90;;;;;;6658453;89;20202;-79
2022/09/27 04:15:47;;;;;;;1999.90;999.90;;;9.30;99.90;;;;;;6655264;89;20205;-79
2022/09/27 04:25:48;;;;;;;1999.90;999.90;;;9.30;99.90;;;;;;6655298;89;20334;-79
2022/09/27 04:46:08;;;;;;;1999.90;999.90;;;9.00;99.90;;;;;;6642041;89;20239;-78
2022/09/27 04:56:08;;;;;;;1999.90;999.90;;;8.90;99.90;;;;;;6657140;89;20216;-79
2022/09/27 05:06:09;;;;;;;1999.90;999.90;;;8.90;99.90;;;;;;6656267;89;20201;-78
2022/09/27 05:16:10;;;;;;;1999.90;999.90;;;8.80;99.90;;;;;;6653510;88;20214;-78
2022/09/27 05:26:10;;;;;;;1999.90;999.90;;;8.70;99.90;;;;;;6656046;88;20266;-79
2022/09/27 05:36:11;;;;;;;1999.90;999.90;;;8.80;99.90;;;;;;6660533;89;20264;-80
2022/09/27 05:46:12;;;;;;;1999.90;999.90;;;8.70;99.90;;;;;;6661963;89;20208;-81
2022/09/27 05:56:12;;;;;;;1999.90;999.90;;;8.70;99.90;;;;;;6659193;88;20217;-81
2022/09/27 06:06:14;;;;;;;1999.90;999.90;;;8.90;99.90;;;;;;6664524;88;20224;-78
2022/09/27 06:16:14;;;;;;;1999.90;999.90;;;8.80;99.90;;;;;;6659168;89;20305;-78
2022/09/27 06:26:16;;;;;;;1999.90;999.90;;;8.80;99.90;;;;;;6654798;89;20637;-79
2022/09/27 06:36:17;;;;;;;1999.90;999.90;;;8.80;99.90;;;;;;6654250;89;20231;-79
2022/09/27 06:46:17;;;;;;;1999.90;999.90;;;8.90;99.90;;;;;;6657811;89;20315;-78
2022/09/27 06:56:18;;;;;;;1999.90;999.90;;;9.20;99.90;;;;;;6658286;89;20199;-78
2022/09/27 07:06:23;;;;;;;1999.90;999.90;;;9.80;99.90;;;;;;6656943;89;20623;-80
2022/09/27 07:16:24;;;;;;;1999.90;999.90;;;10.20;99.90;;;;;;6653965;89;20286;-79
2022/09/27 07:26:24;;;;;;;1999.90;999.90;;;10.20;99.90;;;;;;6658112;89;20254;-79
2022/09/27 07:36:25;;;;;;;1999.90;999.90;;;10.20;99.90;;;;;;6661990;89;20172;-79
2022/09/27 07:46:25;;;;;;;1999.90;999.90;;;10.20;99.90;;;;;;6657754;88;20235;-78
2022/09/27 07:56:27;;;;;;;1999.90;999.90;;;10.50;99.90;;;;;;6667476;88;20199;-79
2022/09/27 08:06:28;;;;;;;1999.90;999.90;;;10.60;99.90;;;;;;6643013;89;20259;-79
2022/09/27 08:16:29;;;;;;;1999.90;999.90;;;10.70;99.90;;;;;;6650739;89;20236;-79
2022/09/27 08:26:30;;;;;;;1999.90;999.90;;;11.10;99.90;;;;;;6657060;89;20209;-79
2022/09/27 08:36:34;;;;;;;1999.90;999.90;;;11.40;99.90;;;;;;6654642;88;20708;-79
2022/09/27 08:46:37;;;;;;;1999.90;999.90;;;11.50;99.90;;;;;;6646720;89;20324;-79
2022/09/27 08:56:38;;;;;;;1999.90;999.90;;;11.50;99.90;;;;;;6641220;89;20217;-79
2022/09/27 09:06:39;;;;;;;1999.90;999.90;;;11.80;99.90;;;;;;6644251;89;20299;-79
2022/09/27 09:16:55;;;;;;;1999.90;999.90;;;12.00;99.90;;;;;;6643036;89;20215;-79
2022/09/27 09:27:13;;;;;;;1999.90;999.90;;;11.90;99.90;;;;;;6652744;89;20207;-79
2022/09/27 09:37:21;;;;;;;1999.90;999.90;;;11.90;99.90;;;;;;6640150;88;20237;-80
2022/09/27 09:47:45;;;;;;;1999.90;999.90;;;12.50;99.90;;;;;;6640931;89;20211;-79
2022/09/27 09:58:00;;;;;;;1999.90;999.90;;;12.90;99.90;;;;;;6644234;89;20293;-79
2022/09/27 10:08:03;;;;;;;1999.90;999.90;;;13.60;99.90;;;;;;6639306;88;20217;-79
2022/09/27 10:18:04;;;;;;;1999.90;999.90;;;14.10;99.90;;;;;;6642565;89;20590;-79
2022/09/27 10:28:05;;;;;;;1999.90;999.90;;;13.50;99.90;;;;;;6670128;89;20204;-79
2022/09/27 10:48:21;;;;;;;1999.90;999.90;;;14.00;99.90;;;;;;6633759;88;20250;-80
2022/09/27 10:58:28;;;;;;;1999.90;999.90;;;13.80;99.90;;;;;;6627020;89;20208;-78
2022/09/27 11:08:31;;;;;;;1999.90;999.90;;;13.70;99.90;;;;;;6633397;88;20254;-79
2022/09/27 11:18:54;;;;;;;1999.90;999.90;;;13.70;99.90;;;;;;6638933;89;20205;-80
2022/09/27 11:29:34;;;;;;;1999.90;999.90;;;13.50;99.90;;;;;;6636497;89;20189;-81
2022/09/27 11:39:53;;;;;;;1999.90;999.90;;;13.30;99.90;;;;;;6638622;89;20221;-81
2022/09/27 11:50:28;;;;;;;1999.90;999.90;;;13.30;99.90;;;;;;6644228;89;20188;-80
2022/09/27 12:00:55;;;;;;;1999.90;999.90;;;13.20;99.90;;;;;;6679720;88;20727;-81
2022/09/27 12:11:08;;;;;;;1999.90;999.90;;;13.40;99.90;;;;;;6643784;89;20212;-80
2022/09/27 12:21:11;;;;;;;1999.90;999.90;;;13.80;99.90;;;;;;6640685;89;20922;-80
2022/09/27 12:31:20;;;;;;;1999.90;999.90;;;13.60;99.90;;;;;;6644146;89;20649;-81
2022/09/27 12:41:23;;;;;;;1999.90;999.90;;;13.40;99.90;;;;;;6640648;88;20174;-80
2022/09/27 12:51:36;;;;;;;1999.90;999.90;;;13.30;99.90;;;;;;6638254;89;20190;-81
2022/09/27 13:02:12;;;;;;;1999.90;999.90;;;13.40;99.90;;;;;;6645966;88;20244;-81
2022/09/27 13:12:19;;;;;;;1999.90;999.90;;;13.20;99.90;;;;;;6637272;89;20201;-81
2022/09/27 13:22:25;;;;;;;1999.90;999.90;;;13.50;99.90;;;;;;6642971;88;20649;-81
2022/09/27 13:32:27;;;;;;;1999.90;999.90;;;14.30;99.90;;;;;;6639307;89;20282;-78
2022/09/27 13:42:45;;;;;;;1999.90;999.90;;;13.40;99.90;;;;;;6633855;89;20194;-80
2022/09/27 13:52:58;;;;;;;1999.90;999.90;;;12.80;99.90;;;;;;6632536;89;20813;-79
2022/09/27 14:03:15;;;;;;;1999.90;999.90;;;12.30;99.90;;;;;;6635586;89;20240;-81
2022/09/27 14:13:19;;;;;;;1999.90;999.90;;;11.30;99.90;;;;;;6635164;88;20691;-78
2022/09/27 14:23:25;;;;;;;1999.90;999.90;;;11.10;99.90;;;;;;6630627;89;20310;-82
2022/09/27 14:33:30;;;;;;;1999.90;999.90;;;11.40;99.90;;;;;;6635965;89;20198;-80
2022/09/27 14:43:31;;;;;;;1999.90;999.90;;;12.30;99.90;;;;;;6633111;89;20206;-79
2022/09/27 14:53:36;;;;;;;1999.90;999.90;;;12.40;99.90;;;;;;6643631;89;20688;-83
2022/09/27 15:13:42;;;;;;;1999.90;999.90;;;12.50;99.90;;;;;;6653122;87;20236;-80
2022/09/27 15:23:44;;;;;;;1999.90;999.90;;;12.70;99.90;;;;;;6662658;88;20203;-80
2022/09/27 15:33:54;;;;;;;1999.90;999.90;;;12.60;99.90;;;;;;6665635;88;20288;-80
2022/09/27 15:43:54;;;;;;;1999.90;999.90;;;12.30;99.90;;;;;;6662363;89;20237;-80
2022/09/27 15:53:55;;;;;;;1999.90;999.90;;;11.00;99.90;;;;;;6667992;89;20754;-80
2022/09/27 16:03:58;;;;;;;1999.90;999.90;;;9.80;99.90;;;;;;6666224;88;20345;-81
2022/09/27 16:13:59;;;;;;;1999.90;999.90;;;9.40;99.90;;;;;;6650384;88;20197;-80
2022/09/27 16:24:01;;;;;;;1999.90;999.90;;;9.30;99.90;;;;;;6665143;89;20632;-82
2022/09/27 16:34:02;;;;;;;1999.90;999.90;;;9.30;99.90;;;;;;6651646;88;20197;-82
2022/09/27 16:44:11;;;;;;;1999.90;999.90;;;9.50;99.90;;;;;;6651647;89;20303;-80
2022/09/27 16:54:14;;;;;;;1999.90;999.90;;;9.40;99.90;;;;;;6650640;89;20240;-80
2022/09/27 17:04:15;;;;;;;1999.90;999.90;;;9.30;99.90;;;;;;6642277;89;20704;-80
2022/09/27 17:14:16;;;;;;;1999.90;999.90;;;9.10;99.90;;;;;;6639184;89;20215;-78
2022/09/27 17:24:17;;;;;;;1999.90;999.90;;;8.90;99.90;;;;;;6640862;89;20615;-78
2022/09/27 17:34:19;;;;;;;1999.90;999.90;;;8.80;99.90;;;;;;6640092;89;20223;-79
2022/09/27 17:44:19;;;;;;;1999.90;999.90;;;8.90;99.90;;;;;;6637578;89;20737;-79
2022/09/27 17:54:22;;;;;;;1999.90;999.90;;;9.00;99.90;;;;;;6648097;89;20411;-80
2022/09/27 18:04:43;;;;;;;1999.90;999.90;;;9.00;99.90;;;;;;6645503;77;20340;-78
2022/09/27 18:14:44;;;;;;;1999.90;999.90;;;9.10;99.90;;;;;;6656572;88;20206;-79
2022/09/27 18:24:45;;;;;;;1999.90;999.90;;;9.30;99.90;;;;;;6666932;88;20669;-80
2022/09/27 18:34:45;;;;;;;1999.90;999.90;;;9.20;99.90;;;;;;6659660;88;20208;-80
2022/09/27 18:44:46;;;;;;;1999.90;999.90;;;9.40;99.90;;;;;;6670233;88;20206;-78
2022/09/27 18:54:48;;;;;;;1999.90;999.90;;;9.50;99.90;;;;;;6664982;88;20226;-78
2022/09/27 19:04:48;;;;;;;1999.90;999.90;;;9.30;99.90;;;;;;6659791;88;20196;-78
2022/09/27 19:14:51;;;;;;;1999.90;999.90;;;9.30;99.90;;;;;;6666589;88;20279;-79
2022/09/27 19:24:51;;;;;;;1999.90;999.90;;;9.10;99.90;;;;;;6671074;88;20173;-78
2022/09/27 19:34:52;;;;;;;1999.90;999.90;;;9.10;99.90;;;;;;6677083;88;20680;-77
2022/09/27 19:44:53;;;;;;;1999.90;999.90;;;9.00;99.90;;;;;;6668143;88;20216;-78
2022/09/27 19:54:53;;;;;;;1999.90;999.90;;;9.00;99.90;;;;;;6667951;88;20314;-79
2022/09/27 20:04:54;;;;;;;1999.90;999.90;;;9.10;99.90;;;;;;6674983;88;20339;-79
2022/09/27 20:14:54;;;;;;;1999.90;999.90;;;9.00;99.90;;;;;;6660707;88;20358;-78
2022/09/27 20:24:55;;;;;;;1999.90;999.90;;;9.10;99.90;;;;;;6670310;88;20243;-79
2022/09/27 20:34:55;;;;;;;1999.90;999.90;;;9.10;99.90;;;;;;6655956;88;20266;-80
2022/09/27 20:44:56;;;;;;;1999.90;999.90;;;9.50;99.90;;;;;;6663535;88;20173;-77
2022/09/27 20:54:56;;;;;;;1999.90;999.90;;;9.60;99.90;;;;;;6670689;88;20657;-78
2022/09/27 21:04:57;;;;;;;1999.90;999.90;;;9.80;99.90;;;;;;6652900;88;20192;-79
2022/09/27 21:14:58;;;;;;;1999.90;999.90;;;9.90;99.90;;;;;;6652107;88;20318;-78
2022/09/27 21:24:58;;;;;;;1999.90;999.90;;;9.90;99.90;;;;;;6655504;89;20503;-77
2022/09/27 21:34:59;;;;;;;1999.90;999.90;;;9.90;99.90;;;;;;6655535;89;20500;-78
2022/09/27 21:45:00;;;;;;;1999.90;999.90;;;9.80;99.90;;;;;;6658385;88;20202;-78
2022/09/27 21:55:00;;;;;;;1999.90;999.90;;;9.60;99.90;;;;;;6653790;89;20220;-79
2022/09/27 22:05:01;;;;;;;1999.90;999.90;;;9.60;99.90;;;;;;6650791;89;20530;-78
2022/09/27 22:15:01;;;;;;;1999.90;999.90;;;9.60;99.90;;;;;;6654860;89;20223;-79
2022/09/27 22:25:02;;;;;;;1999.90;999.90;;;9.20;99.90;;;;;;6655191;89;20233;-78
2022/09/27 22:35:03;;;;;;;1999.90;999.90;;;9.10;99.90;;;;;;6637733;89;20529;-78
2022/09/27 22:45:04;;;;;;;1999.90;999.90;;;9.20;99.90;;;;;;6637055;89;20402;-78
2022/09/27 22:55:05;;;;;;;1999.90;999.90;;;9.30;99.90;;;;;;6643327;89;20192;-79
2022/09/27 23:05:07;;;;;;;1999.90;999.90;;;9.30;99.90;;;;;;6641904;88;20772;-78
2022/09/27 23:15:08;;;;;;;1999.90;999.90;;;9.30;99.90;;;;;;6648517;89;20202;-79
2022/09/27 23:25:08;;;;;;;1999.90;999.90;;;9.20;99.90;;;;;;6649473;88;20306;-78
2022/09/27 23:35:09;;;;;;;1999.90;999.90;;;9.30;99.90;;;;;;6657208;88;20192;-79
2022/09/27 23:45:10;;;;;;;1999.90;999.90;;;9.40;99.90;;;;;;6662147;89;20312;-79
2022/09/27 23:55:11;;;;;;;1999.90;999.90;;;9.40;99.90;;;;;;6664291;89;20393;-78
